Time;durP1;ratioP1;P1;durP2;ratioP2;P2;SDS_P1;SDS_P2;PMS_P1;PMS_P2;Temp;Humidity;BMP_temperature;BMP_pressure;BME280_temperature;BME280_humidity;BME280_pressure;Samples;Min_cycle;Max_cycle;Signal;HPM_P1;HPM_P2
2023/01/25 00:01:23;;;;;;;0.10;0.10;;;;;;;-1.36;100.00;102510.97;4905384;29;20027;-71
2023/01/25 00:03:49;;;;;;;0.00;0.00;;;;;;;-1.41;100.00;102515.91;4909500;29;20407;-71
2023/01/25 00:06:14;;;;;;;0.00;0.00;;;;;;;-1.41;100.00;102505.16;4906537;29;20851;-71
2023/01/25 00:08:39;;;;;;;0.10;0.10;;;;;;;-1.37;100.00;102501.22;4895886;29;20379;-70
2023/01/25 00:11:05;;;;;;;0.00;0.00;;;;;;;-1.44;100.00;102489.34;4875467;29;20364;-71
2023/01/25 00:13:30;;;;;;;0.10;0.10;;;;;;;-1.48;100.00;102499.47;4895313;29;20028;-72
2023/01/25 00:16:03;;;;;;;0.10;0.10;;;;;;;-1.54;100.00;102488.47;4918231;29;20032;-72
2023/01/25 00:18:29;;;;;;;0.00;0.00;;;;;;;-1.60;100.00;102496.06;4906224;29;20032;-71
2023/01/25 00:20:55;;;;;;;0.10;0.10;;;;;;;-1.65;100.00;102492.94;4910748;29;20474;-71
2023/01/25 00:23:20;;;;;;;0.10;0.10;;;;;;;-1.74;100.00;102483.00;4915891;29;20043;-71
2023/01/25 00:25:45;;;;;;;0.00;0.00;;;;;;;-1.78;100.00;102478.91;4887018;29;20032;-71
2023/01/25 00:28:11;;;;;;;0.10;0.10;;;;;;;-1.82;100.00;102470.25;4885363;29;20035;-71
2023/01/25 00:30:36;;;;;;;0.10;0.10;;;;;;;-1.77;100.00;102485.94;4881900;29;20090;-71
2023/01/25 00:33:33;;;;;;;0.10;0.10;;;;;;;-1.87;100.00;102472.50;4898761;29;20171;-71
2023/01/25 00:36:00;;;;;;;0.00;0.00;;;;;;;-1.91;100.00;102471.06;4906326;29;20028;-72
2023/01/25 00:38:37;;;;;;;0.00;0.00;;;;;;;-1.95;100.00;102475.84;4880115;29;20039;-71
2023/01/25 00:41:02;;;;;;;0.10;0.10;;;;;;;-2.02;100.00;102474.66;4906040;29;20471;-71
2023/01/25 00:43:28;;;;;;;0.10;0.10;;;;;;;-2.06;100.00;102472.38;4913833;29;20059;-71
2023/01/25 00:45:59;;;;;;;0.00;0.00;;;;;;;-1.97;100.00;102477.81;4908198;29;20111;-71
2023/01/25 00:48:25;;;;;;;0.10;0.10;;;;;;;-1.90;100.00;102479.97;4904779;29;20032;-70
2023/01/25 00:50:50;;;;;;;0.10;0.10;;;;;;;-1.91;100.00;102483.63;4892539;29;20039;-72
2023/01/25 00:53:15;;;;;;;0.10;0.10;;;;;;;-1.83;100.00;102489.16;4880516;29;20072;-72
2023/01/25 00:55:50;;;;;;;0.10;0.10;;;;;;;-1.77;100.00;102488.63;4876635;29;20036;-71
2023/01/25 00:58:16;;;;;;;0.10;0.10;;;;;;;-1.77;100.00;102484.13;4893225;29;20032;-71
2023/01/25 01:00:41;;;;;;;0.10;0.10;;;;;;;-1.70;100.00;102484.44;4914715;29;20167;-70
2023/01/25 01:03:06;;;;;;;0.00;0.00;;;;;;;-1.64;100.00;102489.25;4890717;29;20394;-71
2023/01/25 01:05:33;;;;;;;0.10;0.10;;;;;;;-1.64;100.00;102486.56;4878725;29;20028;-71
2023/01/25 01:07:59;;;;;;;0.00;0.00;;;;;;;-1.58;100.00;102483.38;4908427;29;20039;-72
2023/01/25 01:10:24;;;;;;;0.10;0.10;;;;;;;-1.56;100.00;102488.59;4921993;29;20036;-73
2023/01/25 01:12:50;;;;;;;0.10;0.10;;;;;;;-1.56;100.00;102485.03;4876376;29;20028;-74
2023/01/25 01:15:18;;;;;;;0.10;0.10;;;;;;;-1.60;100.00;102479.94;4912439;29;20103;-73
2023/01/25 01:17:43;;;;;;;0.10;0.10;;;;;;;-1.59;100.00;102480.81;4890909;29;20028;-71
2023/01/25 01:20:09;;;;;;;0.10;0.10;;;;;;;-1.65;100.00;102463.41;4888373;29;20127;-72
2023/01/25 01:22:35;;;;;;;0.10;0.10;;;;;;;-1.60;100.00;102477.28;4913276;29;20031;-72
2023/01/25 01:25:00;;;;;;;0.00;0.00;;;;;;;-1.69;100.00;102470.03;4872427;29;20031;-72
2023/01/25 01:27:26;;;;;;;0.10;0.10;;;;;;;-1.86;100.00;102460.78;4884512;29;20031;-72
2023/01/25 01:29:51;;;;;;;0.00;0.00;;;;;;;-2.04;100.00;102465.91;4876065;29;20475;-72
2023/01/25 01:32:16;;;;;;;0.10;0.10;;;;;;;-2.05;100.00;102472.25;4903111;29;20554;-71
2023/01/25 01:34:43;;;;;;;0.10;0.10;;;;;;;-2.01;100.00;102473.69;4911517;29;20067;-73
2023/01/25 01:37:09;;;;;;;0.10;0.10;;;;;;;-1.98;100.00;102478.78;4890022;29;20024;-71
2023/01/25 01:39:35;;;;;;;0.10;0.10;;;;;;;-2.13;100.00;102472.09;4882541;29;20547;-71
2023/01/25 01:42:00;;;;;;;0.10;0.10;;;;;;;-2.20;100.00;102470.91;4900252;29;20123;-70
2023/01/25 01:44:52;;;;;;;0.10;0.10;;;;;;;-2.24;100.00;102472.16;4890495;29;20455;-71
2023/01/25 01:47:30;;;;;;;0.10;0.10;;;;;;;-2.30;100.00;102476.19;4905800;29;20016;-72
2023/01/25 01:50:19;;;;;;;0.10;0.10;;;;;;;-2.32;100.00;102473.66;4905492;29;20115;-71
2023/01/25 01:52:45;;;;;;;0.00;0.00;;;;;;;-2.21;100.00;102478.09;4906705;29;20034;-70
2023/01/25 01:55:17;;;;;;;0.10;0.10;;;;;;;-2.19;100.00;102477.94;4878886;29;20028;-71
2023/01/25 01:57:47;;;;;;;0.10;0.10;;;;;;;-2.28;100.00;102472.41;4908182;29;20088;-72
2023/01/25 02:00:24;;;;;;;0.10;0.10;;;;;;;-2.29;100.00;102473.38;4913326;29;20038;-72
2023/01/25 02:02:50;;;;;;;0.10;0.10;;;;;;;-2.33;100.00;102476.47;4889629;29;20752;-72
2023/01/25 02:05:29;;;;;;;0.10;0.10;;;;;;;-2.41;100.00;102479.81;4894174;29;20444;-70
2023/01/25 02:07:56;;;;;;;0.10;0.10;;;;;;;-2.39;100.00;102483.19;4893869;29;20070;-71
2023/01/25 02:10:24;;;;;;;0.10;0.10;;;;;;;-2.44;100.00;102480.03;4884372;29;20065;-71
2023/01/25 02:12:53;;;;;;;0.10;0.10;;;;;;;-2.41;100.00;102478.94;4907327;29;20043;-70
2023/01/25 02:15:18;;;;;;;0.10;0.10;;;;;;;-2.33;100.00;102496.06;4896485;29;20090;-72
2023/01/25 02:17:44;;;;;;;0.10;0.10;;;;;;;-2.25;100.00;102484.69;4870610;29;20036;-71
2023/01/25 02:20:34;;;;;;;0.10;0.10;;;;;;;-2.20;100.00;102487.00;4904267;29;20036;-72
2023/01/25 02:23:26;;;;;;;0.10;0.10;;;;;;;-2.24;100.00;102485.56;4902144;29;20043;-71
2023/01/25 02:25:54;;;;;;;0.10;0.10;;;;;;;-2.22;100.00;102488.94;4879425;29;20115;-71
2023/01/25 02:28:28;;;;;;;0.10;0.10;;;;;;;-2.26;100.00;102474.97;4903230;29;20039;-72
2023/01/25 02:30:53;;;;;;;0.10;0.10;;;;;;;-2.33;100.00;102488.03;4895538;29;20032;-71
2023/01/25 02:33:22;;;;;;;0.10;0.10;;;;;;;-2.41;100.00;102479.81;4909687;29;20042;-71
2023/01/25 02:35:55;;;;;;;0.10;0.10;;;;;;;-2.48;100.00;102483.97;4888731;29;20052;-71
2023/01/25 02:38:23;;;;;;;0.10;0.10;;;;;;;-2.52;100.00;102486.03;4915054;29;20371;-71
2023/01/25 02:40:56;;;;;;;0.10;0.10;;;;;;;-2.57;100.00;102482.94;4886655;29;20032;-71
2023/01/25 02:43:23;;;;;;;0.10;0.10;;;;;;;-2.58;100.00;102477.69;4896151;29;20131;-72
2023/01/25 02:45:55;;;;;;;0.10;0.10;;;;;;;-2.54;100.00;102479.13;4872162;29;20139;-71
2023/01/25 02:48:20;;;;;;;0.10;0.10;;;;;;;-2.52;100.00;102477.19;4912010;29;20107;-72
2023/01/25 02:50:46;;;;;;;0.10;0.10;;;;;;;-2.53;100.00;102472.78;4872140;29;20116;-71
2023/01/25 02:53:11;;;;;;;0.10;0.10;;;;;;;-2.51;100.00;102468.13;4869283;29;20028;-71
2023/01/25 02:55:37;;;;;;;0.10;0.10;;;;;;;-2.44;100.00;102479.19;4912291;29;20024;-71
2023/01/25 02:58:02;;;;;;;0.10;0.10;;;;;;;-2.43;100.00;102465.66;4882171;29;20035;-71
2023/01/25 03:00:27;;;;;;;0.10;0.10;;;;;;;-2.42;100.00;102459.34;4910056;29;20021;-71
2023/01/25 03:02:53;;;;;;;0.10;0.10;;;;;;;-2.26;100.00;102471.41;4915467;29;20036;-71
2023/01/25 03:05:18;;;;;;;0.10;0.10;;;;;;;-2.31;100.00;102470.00;4919479;29;20673;-72
2023/01/25 03:07:44;;;;;;;0.10;0.10;;;;;;;-2.34;100.00;102475.59;4888354;29;20394;-72
2023/01/25 03:10:09;;;;;;;0.10;0.10;;;;;;;-2.34;100.00;102469.41;4880284;29;20352;-73
2023/01/25 03:12:35;;;;;;;0.10;0.10;;;;;;;-2.32;100.00;102468.28;4878759;29;20478;-72
2023/01/25 03:15:00;;;;;;;0.10;0.10;;;;;;;-2.36;100.00;102466.84;4906430;29;20363;-71
2023/01/25 03:17:26;;;;;;;0.10;0.10;;;;;;;-2.39;100.00;102456.41;4892784;29;20032;-73
2023/01/25 03:19:52;;;;;;;0.10;0.10;;;;;;;-2.39;100.00;102467.13;4858356;29;20048;-73
2023/01/25 03:22:18;;;;;;;0.10;0.10;;;;;;;-2.37;100.00;102466.97;4910541;29;20028;-72
2023/01/25 03:24:44;;;;;;;0.10;0.10;;;;;;;-2.32;100.00;102462.94;4892324;29;20485;-73
2023/01/25 03:27:09;;;;;;;0.10;0.10;;;;;;;-2.34;100.00;102459.50;4879769;29;20043;-72
2023/01/25 03:29:38;;;;;;;0.10;0.10;;;;;;;-2.50;100.00;102451.97;4923507;29;20099;-72
2023/01/25 03:32:04;;;;;;;0.10;0.10;;;;;;;-2.50;100.00;102459.13;4884520;23;20116;-72
2023/01/25 03:34:29;;;;;;;0.10;0.10;;;;;;;-2.51;100.00;102457.41;4876220;29;20029;-72
2023/01/25 03:36:54;;;;;;;0.10;0.10;;;;;;;-2.61;100.00;102457.38;4893082;29;20056;-71
2023/01/25 03:39:20;;;;;;;0.10;0.10;;;;;;;-2.68;100.00;102446.31;4872140;29;20032;-72
2023/01/25 03:41:45;;;;;;;0.10;0.10;;;;;;;-2.63;100.00;102443.22;4880350;29;20036;-72
2023/01/25 03:44:11;;;;;;;0.10;0.10;;;;;;;-2.62;100.00;102431.53;4883402;29;20024;-72
2023/01/25 03:46:37;;;;;;;0.10;0.10;;;;;;;-2.60;100.00;102431.41;4884805;29;20032;-72
2023/01/25 03:49:03;;;;;;;0.10;0.10;;;;;;;-2.54;100.00;102438.94;4884898;29;20040;-72
2023/01/25 03:51:28;;;;;;;0.10;0.10;;;;;;;-2.54;100.00;102436.25;4872641;29;20085;-72
2023/01/25 03:53:53;;;;;;;0.10;0.10;;;;;;;-2.53;100.00;102441.47;4885757;29;20070;-74
2023/01/25 03:56:19;;;;;;;0.10;0.10;;;;;;;-2.55;100.00;102434.56;4889056;29;20041;-72
2023/01/25 03:58:45;;;;;;;0.10;0.10;;;;;;;-2.58;100.00;102430.31;4879168;29;20032;-73
2023/01/25 04:01:10;;;;;;;0.10;0.10;;;;;;;-2.52;100.00;102436.97;4891310;29;20032;-72
2023/01/25 04:03:36;;;;;;;0.10;0.10;;;;;;;-2.50;100.00;102433.19;4894667;29;20024;-73
2023/01/25 04:06:02;;;;;;;0.10;0.10;;;;;;;-2.56;100.00;102438.22;4877889;29;20127;-72
2023/01/25 04:08:28;;;;;;;0.10;0.10;;;;;;;-2.62;100.00;102447.63;4877159;29;20037;-73
2023/01/25 04:10:56;;;;;;;0.10;0.10;;;;;;;-2.61;100.00;102441.28;4874620;29;20033;-73
2023/01/25 04:13:24;;;;;;;0.10;0.10;;;;;;;-2.55;100.00;102443.44;4891646;29;20028;-74
2023/01/25 04:15:50;;;;;;;0.10;0.10;;;;;;;-2.49;100.00;102445.59;4879540;29;20024;-74
2023/01/25 04:18:17;;;;;;;0.10;0.10;;;;;;;-2.43;100.00;102444.22;4888842;29;20020;-74
2023/01/25 04:20:42;;;;;;;0.10;0.10;;;;;;;-2.39;100.00;102451.03;4894508;29;20471;-74
2023/01/25 04:23:09;;;;;;;0.10;0.10;;;;;;;-2.38;100.00;102452.75;4890808;29;20040;-75
2023/01/25 04:25:37;;;;;;;0.10;0.10;;;;;;;-2.34;100.00;102453.31;4880489;29;20025;-74
2023/01/25 04:28:03;;;;;;;0.10;0.10;;;;;;;-2.34;100.00;102448.78;4892768;29;20081;-73
2023/01/25 04:30:29;;;;;;;0.10;0.10;;;;;;;-2.37;100.00;102446.38;4858979;29;20029;-74
2023/01/25 04:32:54;;;;;;;0.10;0.10;;;;;;;-2.42;100.00;102443.25;4893771;29;20059;-74
2023/01/25 04:35:20;;;;;;;0.10;0.10;;;;;;;-2.51;100.00;102438.66;4888224;29;20120;-74
2023/01/25 04:37:53;;;;;;;0.10;0.10;;;;;;;-2.44;100.00;102447.88;4876209;29;20057;-75
2023/01/25 04:40:19;;;;;;;0.10;0.10;;;;;;;-2.49;100.00;102444.75;4853606;29;20123;-74
2023/01/25 04:42:44;;;;;;;0.10;0.10;;;;;;;-2.55;100.00;102445.28;4857352;29;20085;-73
2023/01/25 04:45:10;;;;;;;0.10;0.10;;;;;;;-2.46;100.00;102455.22;4873679;29;20029;-73
2023/01/25 04:47:35;;;;;;;0.10;0.10;;;;;;;-2.44;100.00;102449.72;4882594;29;20486;-75
2023/01/25 04:50:03;;;;;;;0.10;0.10;;;;;;;-2.41;100.00;102453.00;4878412;29;20037;-74
2023/01/25 04:52:28;;;;;;;0.10;0.10;;;;;;;-2.39;100.00;102445.66;4888662;29;20514;-73
2023/01/25 04:54:54;;;;;;;0.10;0.10;;;;;;;-2.40;100.00;102449.31;4877415;29;20040;-74
2023/01/25 04:57:19;;;;;;;0.10;0.10;;;;;;;-2.36;100.00;102448.09;4889190;29;20048;-75
2023/01/25 04:59:45;;;;;;;0.10;0.10;;;;;;;-2.36;100.00;102444.56;4869945;29;20029;-74
2023/01/25 05:02:10;;;;;;;0.10;0.10;;;;;;;-2.30;100.00;102450.25;4891746;29;20415;-73
2023/01/25 05:04:36;;;;;;;0.10;0.10;;;;;;;-2.28;100.00;102453.66;4875303;29;20031;-73
2023/01/25 05:07:01;;;;;;;0.10;0.10;;;;;;;-2.34;100.00;102443.44;4873069;29;20048;-73
2023/01/25 05:09:27;;;;;;;0.10;0.10;;;;;;;-2.27;100.00;102446.44;4874587;29;20498;-74
2023/01/25 05:11:53;;;;;;;0.10;0.10;;;;;;;-2.28;100.00;102442.94;4886118;29;20025;-73
2023/01/25 05:14:18;;;;;;;0.10;0.10;;;;;;;-2.12;100.00;102468.41;4891406;29;20036;-73
2023/01/25 05:16:43;;;;;;;0.10;0.10;;;;;;;-2.11;100.00;102462.91;4894540;29;20136;-73
2023/01/25 05:19:09;;;;;;;0.10;0.10;;;;;;;-2.16;100.00;102450.88;4889688;29;20059;-72
2023/01/25 05:24:18;;;;;;;0.10;0.10;;;;;;;-2.05;100.00;102458.00;4886423;29;20485;-73
2023/01/25 05:26:59;;;;;;;0.10;0.10;;;;;;;-2.13;100.00;102450.63;4881069;29;20041;-74
2023/01/25 05:29:38;;;;;;;0.10;0.10;;;;;;;-2.12;100.00;102457.69;4867508;29;20241;-74
2023/01/25 05:32:15;;;;;;;0.10;0.10;;;;;;;-2.03;100.00;102451.53;4888779;29;20093;-73
2023/01/25 05:34:42;;;;;;;0.10;0.10;;;;;;;-1.96;100.00;102447.34;4886217;29;20051;-73
2023/01/25 05:37:09;;;;;;;0.10;0.10;;;;;;;-1.84;100.00;102449.91;4892544;29;20040;-74
2023/01/25 05:39:36;;;;;;;0.10;0.10;;;;;;;-1.79;100.00;102442.31;4880548;29;20033;-73
2023/01/25 05:42:01;;;;;;;0.10;0.10;;;;;;;-1.73;100.00;102439.09;4884009;29;20045;-72
2023/01/25 05:44:27;;;;;;;0.10;0.10;;;;;;;-1.63;100.00;102442.66;4884808;29;20023;-72
2023/01/25 05:46:52;;;;;;;0.10;0.10;;;;;;;-1.62;100.00;102444.38;4892530;29;20036;-73
2023/01/25 05:49:18;;;;;;;0.10;0.10;;;;;;;-1.51;100.00;102434.50;4882643;29;20137;-72
2023/01/25 05:51:45;;;;;;;0.10;0.10;;;;;;;-1.51;100.00;102437.19;4889576;29;20781;-73
2023/01/25 05:54:13;;;;;;;0.10;0.10;;;;;;;-1.53;100.00;102426.59;4892170;29;20024;-74
2023/01/25 05:57:05;;;;;;;;;;;;;;;;;;;;;
2023/01/25 05:59:30;;;;;;;0.10;0.10;;;;;;;-1.56;100.00;102420.66;4887171;29;20495;-72
2023/01/25 06:01:56;;;;;;;0.10;0.10;;;;;;;-1.55;100.00;102427.72;4873730;29;20037;-74
2023/01/25 06:04:22;;;;;;;0.10;0.10;;;;;;;-1.63;100.00;102415.84;4890574;29;20032;-75
2023/01/25 06:06:47;;;;;;;0.10;0.10;;;;;;;-1.60;100.00;102415.56;4885052;29;20016;-75
2023/01/25 06:09:13;;;;;;;0.10;0.10;;;;;;;-1.64;100.00;102411.44;4868578;29;20037;-76
2023/01/25 06:11:41;;;;;;;0.10;0.10;;;;;;;-1.65;100.00;102407.09;4871338;29;20033;-74
2023/01/25 06:14:06;;;;;;;0.10;0.10;;;;;;;-1.68;100.00;102393.94;4891528;29;20042;-74
2023/01/25 06:16:32;;;;;;;0.10;0.10;;;;;;;-1.65;100.00;102399.03;4875529;29;20037;-76
2023/01/25 06:18:57;;;;;;;0.10;0.10;;;;;;;-1.73;100.00;102398.84;4887125;29;20390;-75
2023/01/25 06:21:23;;;;;;;0.10;0.10;;;;;;;-1.74;100.00;102396.31;4861558;29;20032;-74
2023/01/25 06:23:48;;;;;;;0.10;0.10;;;;;;;-1.72;100.00;102397.88;4886789;29;20032;-73
2023/01/25 06:26:14;;;;;;;0.10;0.10;;;;;;;-1.73;100.00;102385.44;4888886;29;20040;-74
2023/01/25 06:28:40;;;;;;;0.10;0.10;;;;;;;-1.73;100.00;102387.28;4885220;29;20522;-73
2023/01/25 06:31:11;;;;;;;0.10;0.10;;;;;;;-1.74;100.00;102397.16;4891191;29;20123;-73
2023/01/25 06:33:38;;;;;;;0.10;0.10;;;;;;;-1.73;100.00;102388.13;4908170;29;20020;-75
2023/01/25 06:36:06;;;;;;;0.10;0.10;;;;;;;-1.80;100.00;102376.25;4892597;29;20038;-75
2023/01/25 06:38:32;;;;;;;0.10;0.10;;;;;;;-1.77;100.00;102375.97;4894076;29;20039;-75
2023/01/25 06:40:59;;;;;;;0.10;0.10;;;;;;;-1.83;100.00;102381.88;4906415;29;20112;-76
2023/01/25 06:43:25;;;;;;;0.10;0.10;;;;;;;-1.90;100.00;102388.78;4893845;29;20028;-73
2023/01/25 06:45:50;;;;;;;0.10;0.10;;;;;;;-1.94;100.00;102389.06;4905681;29;20906;-73
2023/01/25 06:48:16;;;;;;;0.10;0.10;;;;;;;-1.98;100.00;102392.97;4886322;29;20478;-73
2023/01/25 06:50:41;;;;;;;0.10;0.10;;;;;;;-2.01;100.00;102392.41;4871289;29;20100;-73
2023/01/25 06:53:06;;;;;;;0.10;0.10;;;;;;;-2.10;100.00;102377.97;4888250;29;20423;-73
2023/01/25 06:55:32;;;;;;;0.10;0.10;;;;;;;-2.02;100.00;102394.22;4893194;29;20443;-74
2023/01/25 06:58:00;;;;;;;0.10;0.10;;;;;;;-2.00;100.00;102396.78;4889384;29;20062;-73
2023/01/25 07:00:25;;;;;;;0.10;0.10;;;;;;;-2.00;100.00;102403.00;4884343;29;20021;-71
2023/01/25 07:02:51;;;;;;;0.10;0.10;;;;;;;-2.03;100.00;102387.19;4906955;29;20039;-73
2023/01/25 07:05:16;;;;;;;0.10;0.10;;;;;;;-2.02;100.00;102383.50;4871791;29;20024;-74
2023/01/25 07:07:45;;;;;;;0.10;0.10;;;;;;;-1.97;100.00;102381.28;4907855;29;20430;-73
2023/01/25 07:10:11;;;;;;;0.10;0.10;;;;;;;-1.89;100.00;102393.16;4867712;29;20039;-72
2023/01/25 07:12:37;;;;;;;0.10;0.10;;;;;;;-1.96;100.00;102393.72;4913038;29;20024;-73
2023/01/25 07:15:02;;;;;;;0.10;0.10;;;;;;;-1.96;100.00;102382.97;4907147;29;20513;-74
2023/01/25 07:17:35;;;;;;;0.10;0.10;;;;;;;-1.96;100.00;102388.34;4882863;29;20490;-74
2023/01/25 07:20:10;;;;;;;0.10;0.10;;;;;;;-1.99;100.00;102372.50;4890197;29;20028;-75
2023/01/25 07:22:42;;;;;;;0.10;0.10;;;;;;;-1.90;100.00;102391.47;4884546;29;20036;-75
2023/01/25 07:25:10;;;;;;;0.10;0.10;;;;;;;-2.01;100.00;102371.81;4894304;29;20036;-73
2023/01/25 07:27:35;;;;;;;0.10;0.10;;;;;;;-2.00;100.00;102368.16;4879393;29;20127;-75
2023/01/25 07:30:02;;;;;;;0.10;0.10;;;;;;;-1.91;100.00;102387.06;4893194;29;20110;-75
2023/01/25 07:32:27;;;;;;;0.10;0.10;;;;;;;-1.95;100.00;102373.09;4890377;29;20124;-75
2023/01/25 07:34:53;;;;;;;0.10;0.10;;;;;;;-1.97;100.00;102362.50;4897950;29;20036;-75
2023/01/25 07:37:18;;;;;;;0.10;0.10;;;;;;;-2.02;100.00;102351.31;4908201;29;20032;-75
2023/01/25 07:39:59;;;;;;;0.10;0.10;;;;;;;-1.84;100.00;102364.94;4892074;29;20110;-75
2023/01/25 07:42:38;;;;;;;0.10;0.10;;;;;;;-1.91;100.00;102352.19;4879427;29;20529;-77
2023/01/25 07:45:58;;;;;;;0.10;0.10;;;;;;;-1.97;100.00;102324.97;4909729;29;20036;-76
2023/01/25 07:48:33;;;;;;;0.10;0.10;;;;;;;-1.85;100.00;102324.88;4877078;29;20036;-76
2023/01/25 07:51:22;;;;;;;0.10;0.10;;;;;;;-1.73;100.00;102329.09;4890503;29;20032;-76
2023/01/25 07:53:50;;;;;;;0.10;0.10;;;;;;;-1.65;100.00;102331.09;4871577;29;20096;-75
2023/01/25 07:57:08;;;;;;;0.10;0.10;;;;;;;-1.53;100.00;102337.19;4889734;29;20462;-75
2023/01/25 07:59:55;;;;;;;0.10;0.10;;;;;;;-1.57;100.00;102333.94;4899454;29;20435;-76
2023/01/25 08:02:20;;;;;;;0.10;0.10;;;;;;;-1.67;100.00;102312.47;4911748;29;20036;-77
2023/01/25 08:05:05;;;;;;;0.10;0.10;;;;;;;-1.60;100.00;102323.50;4923392;29;20359;-76
2023/01/25 08:07:46;;;;;;;0.10;0.10;;;;;;;-1.41;100.00;102354.88;4913011;29;20084;-76
2023/01/25 08:10:59;;;;;;;0.10;0.10;;;;;;;-1.58;100.00;102325.06;4890258;29;20111;-76
2023/01/25 08:16:24;;;;;;;0.10;0.10;;;;;;;-1.41;100.00;102336.09;4906707;29;20040;-76
2023/01/25 08:22:44;;;;;;;;;;;;;;;;;;;;;
2023/01/25 08:25:15;;;;;;;0.10;0.10;;;;;;;-1.31;100.00;102328.88;4898654;29;20070;-76
2023/01/25 08:27:44;;;;;;;0.10;0.10;;;;;;;-1.27;100.00;102318.69;4891607;29;20037;-76
2023/01/25 08:30:11;;;;;;;0.10;0.10;;;;;;;-1.14;100.00;102330.03;4879890;29;20735;-76
2023/01/25 08:32:37;;;;;;;0.10;0.10;;;;;;;-1.10;100.00;102335.94;4878609;29;20052;-76
2023/01/25 08:35:02;;;;;;;0.10;0.10;;;;;;;-1.09;100.00;102334.97;4861130;29;20044;-75
2023/01/25 08:37:28;;;;;;;0.10;0.10;;;;;;;-1.04;100.00;102335.38;4891698;23;20041;-78
2023/01/25 08:40:06;;;;;;;;;;;;;;;;;;;;;
2023/01/25 08:46:03;;;;;;;0.10;0.10;;;;;;;-0.92;100.00;102306.50;4893579;29;20043;-76
2023/01/25 08:48:31;;;;;;;0.10;0.10;;;;;;;-0.72;100.00;102318.06;4914030;29;20027;-76
2023/01/25 08:50:57;;;;;;;0.10;0.10;;;;;;;-0.79;100.00;102295.47;4906532;29;20631;-79
2023/01/25 08:53:22;;;;;;;0.10;0.10;;;;;;;-0.61;100.00;102301.78;4930319;29;20023;-76
2023/01/25 08:55:48;;;;;;;0.10;0.10;;;;;;;-0.60;100.00;102273.94;4928702;29;20031;-76
2023/01/25 08:58:22;;;;;;;0.10;0.10;;;;;;;-0.44;100.00;102285.88;4911980;29;20038;-74
2023/01/25 09:01:10;;;;;;;;;;;;;;;;;;;;;
2023/01/25 09:03:43;;;;;;;0.10;0.10;;;;;;;-0.50;100.00;102267.66;4921866;29;20032;-75
2023/01/25 09:06:20;;;;;;;0.05;0.05;;;;;;;-0.40;100.00;102263.09;4914195;29;20522;-76
2023/01/25 09:08:56;;;;;;;0.10;0.10;;;;;;;-0.24;100.00;102284.81;4908923;29;20053;-75
2023/01/25 09:11:22;;;;;;;0.10;0.10;;;;;;;-0.30;100.00;102274.66;4918400;29;20028;-76
2023/01/25 09:13:47;;;;;;;0.10;0.10;;;;;;;-0.37;100.00;102258.25;4895075;29;20058;-76
2023/01/25 09:16:27;;;;;;;0.10;0.10;;;;;;;-0.23;100.00;102272.22;4928295;29;20447;-75
2023/01/25 09:18:57;;;;;;;0.10;0.10;;;;;;;-0.17;100.00;102257.34;4908404;29;20034;-74
2023/01/25 09:21:22;;;;;;;0.10;0.10;;;;;;;-0.05;100.00;102248.06;4932097;29;20505;-75
2023/01/25 09:23:56;;;;;;;0.10;0.10;;;;;;;0.03;100.00;102236.53;4927757;29;20027;-75
2023/01/25 09:26:24;;;;;;;0.10;0.10;;;;;;;0.08;100.00;102223.47;4914277;29;20031;-75
2023/01/25 09:28:51;;;;;;;0.10;0.10;;;;;;;0.26;100.00;102243.16;4895077;29;20086;-76
2023/01/25 09:31:18;;;;;;;0.10;0.10;;;;;;;0.34;100.00;102239.72;4919799;29;20040;-77
2023/01/25 09:33:44;;;;;;;0.10;0.10;;;;;;;0.28;100.00;102214.25;4902395;29;20059;-76
2023/01/25 09:36:10;;;;;;;0.10;0.10;;;;;;;0.46;100.00;102238.47;4913969;29;20066;-76
2023/01/25 09:38:36;;;;;;;0.10;0.10;;;;;;;0.40;100.00;102222.94;4921669;29;20044;-75
2023/01/25 09:41:39;;;;;;;0.10;0.10;;;;;;;0.54;100.00;102228.78;4925615;29;20038;-75
2023/01/25 09:44:30;;;;;;;0.10;0.10;;;;;;;0.60;100.00;102217.38;4934542;28;20074;-75
2023/01/25 09:46:59;;;;;;;0.10;0.10;;;;;;;0.71;100.00;102203.66;4949505;28;20039;-75
2023/01/25 09:49:48;;;;;;;0.05;0.05;;;;;;;0.78;100.00;102202.03;4948841;28;20647;-75
2023/01/25 09:52:44;;;;;;;0.10;0.10;;;;;;;0.96;100.00;102217.31;4948030;28;20073;-75
2023/01/25 09:55:16;;;;;;;0.10;0.10;;;;;;;0.95;100.00;102204.81;4924899;29;20038;-76
2023/01/25 09:57:44;;;;;;;0.10;0.10;;;;;;;0.99;100.00;102216.97;4923591;29;20034;-77
2023/01/25 10:00:30;;;;;;;0.10;0.10;;;;;;;0.93;100.00;102185.31;4926008;29;20047;-75
2023/01/25 10:03:04;;;;;;;0.10;0.10;;;;;;;1.06;100.00;102195.66;4933489;29;20030;-75
2023/01/25 10:05:47;;;;;;;0.10;0.10;;;;;;;1.10;100.00;102197.88;4946670;28;20052;-75
2023/01/25 10:08:19;;;;;;;0.10;0.10;;;;;;;1.22;100.00;102207.34;4940381;29;20043;-75
2023/01/25 10:10:49;;;;;;;0.10;0.10;;;;;;;1.10;100.00;102187.09;4957145;28;20023;-75
2023/01/25 10:13:22;;;;;;;0.10;0.10;;;;;;;1.18;100.00;102192.53;4914147;28;20394;-75
2023/01/25 10:15:56;;;;;;;0.10;0.10;;;;;;;1.14;100.00;102190.28;4921368;29;20055;-76
2023/01/25 10:18:58;;;;;;;0.10;0.10;;;;;;;1.04;100.00;102176.94;4927233;29;20385;-75
2023/01/25 10:21:47;;;;;;;0.10;0.10;;;;;;;1.08;100.00;102183.72;4924734;29;20066;-75
2023/01/25 10:24:31;;;;;;;0.10;0.10;;;;;;;1.06;100.00;102177.63;4928876;29;20030;-76
2023/01/25 10:27:10;;;;;;;0.10;0.10;;;;;;;1.03;100.00;102170.69;4926899;29;20055;-75
2023/01/25 10:29:36;;;;;;;0.10;0.10;;;;;;;1.09;100.00;102171.09;4930406;29;20027;-75
2023/01/25 10:32:26;;;;;;;0.10;0.10;;;;;;;1.29;100.00;102171.69;4926607;29;20118;-75
2023/01/25 10:34:56;;;;;;;0.10;0.10;;;;;;;1.47;100.00;102156.25;4947766;29;20027;-76
2023/01/25 10:37:29;;;;;;;0.10;0.10;;;;;;;1.60;100.00;102139.59;4925996;29;20161;-76
2023/01/25 10:40:15;;;;;;;0.10;0.10;;;;;;;1.86;100.00;102149.44;4917706;29;20027;-75
2023/01/25 10:42:49;;;;;;;0.10;0.10;;;;;;;1.95;100.00;102131.41;4943405;29;20038;-76
2023/01/25 10:45:16;;;;;;;0.10;0.10;;;;;;;2.11;100.00;102131.41;4947634;29;20154;-76
2023/01/25 10:47:56;;;;;;;0.10;0.10;;;;;;;2.06;100.00;102125.69;4946442;29;20062;-77
2023/01/25 10:50:45;;;;;;;0.10;0.10;;;;;;;2.08;100.00;102139.84;4925158;29;20034;-75
2023/01/25 10:53:34;;;;;;;0.10;0.10;;;;;;;1.99;100.00;102133.59;4947047;29;20039;-75
2023/01/25 10:56:27;;;;;;;0.10;0.10;;;;;;;2.03;100.00;102128.72;4922288;29;20115;-76
2023/01/25 10:59:24;;;;;;;0.10;0.10;;;;;;;1.98;100.00;102104.94;4926624;29;20038;-75
2023/01/25 11:01:50;;;;;;;0.10;0.10;;;;;;;2.07;100.00;102113.88;4946401;28;20489;-74
2023/01/25 11:04:37;;;;;;;0.10;0.10;;;;;;;2.24;100.00;102123.66;4925397;29;20458;-74
2023/01/25 11:07:04;;;;;;;0.10;0.10;;;;;;;2.27;100.00;102112.50;4949083;28;20031;-75
2023/01/25 11:09:39;;;;;;;0.10;0.10;;;;;;;2.41;100.00;102120.94;4908915;29;20032;-75
2023/01/25 11:12:14;;;;;;;;;;;;;;;2.49;100.00;102107.44;4930063;29;20482;-74
2023/01/25 11:14:39;;;;;;;;;;;;;;;2.54;100.00;102096.97;4944872;29;19924;-74
2023/01/25 11:17:19;;;;;;;0.10;0.10;;;;;;;2.41;100.00;102061.53;4911377;29;19997;-75
2023/01/25 11:19:47;;;;;;;0.10;0.10;;;;;;;2.58;100.00;102071.28;4941904;29;20039;-75
2023/01/25 11:22:24;;;;;;;0.10;0.10;;;;;;;2.68;100.00;102067.56;4915756;29;20043;-76
2023/01/25 11:24:57;;;;;;;0.10;0.10;;;;;;;2.62;100.00;102048.31;4939888;29;20082;-75
2023/01/25 11:27:25;;;;;;;0.10;0.10;;;;;;;2.78;100.00;102057.41;4914193;29;20035;-75
2023/01/25 11:30:17;;;;;;;0.10;0.10;;;;;;;2.91;100.00;102068.50;4923487;29;20034;-78
2023/01/25 11:32:45;;;;;;;0.10;0.10;;;;;;;2.93;100.00;102055.63;4932279;29;20110;-73
2023/01/25 11:35:26;;;;;;;0.10;0.10;;;;;;;2.91;100.00;102046.88;4921168;29;20035;-75
2023/01/25 11:38:16;;;;;;;0.10;0.10;;;;;;;3.03;100.00;102065.41;4948918;28;20058;-76
2023/01/25 11:40:56;;;;;;;0.10;0.10;;;;;;;3.00;100.00;102055.78;4948228;28;20035;-76
2023/01/25 11:43:40;;;;;;;0.10;0.10;;;;;;;3.05;100.00;102068.78;4927039;28;20027;-75
2023/01/25 11:46:14;;;;;;;0.10;0.10;;;;;;;3.03;100.00;102062.72;4926092;29;20070;-76
2023/01/25 11:48:54;;;;;;;0.10;0.10;;;;;;;2.94;100.00;102062.72;4948441;28;20677;-76
2023/01/25 11:51:33;;;;;;;0.10;0.10;;;;;;;2.92;100.00;102056.69;4927108;29;20050;-74
2023/01/25 11:54:36;;;;;;;0.10;0.10;;;;;;;2.99;100.00;102047.84;4929035;29;20368;-75